Time;durP1;ratioP1;P1;durP2;ratioP2;P2;SDS_P1;SDS_P2;PMS_P1;PMS_P2;Temp;Humidity;BMP_temperature;BMP_pressure;BME280_temperature;BME280_humidity;BME280_pressure;Samples;Min_cycle;Max_cycle;Signal;HPM_P1;HPM_P2
2022/02/13 00:00:09;;;;;;;7.53;3.63;;;;;;;-145.69;100.00;73552.03;5112840;28;20319;-77
2022/02/13 00:02:36;;;;;;;14.07;4.85;;;;;;;-145.69;100.00;73496.28;5113092;28;20440;-76
2022/02/13 00:05:04;;;;;;;8.63;4.30;;;;;;;-145.69;100.00;73482.34;5113435;28;20201;-76
2022/02/13 00:07:31;;;;;;;7.50;3.60;;;;;;;-145.69;100.00;73476.38;5113306;28;20193;-77
2022/02/13 00:09:58;;;;;;;10.23;4.03;;;;;;;-145.69;100.00;73492.28;5113725;28;20205;-76
2022/02/13 00:12:24;;;;;;;8.47;3.70;;;;;;;-145.69;100.00;73464.44;5113460;28;20312;-76
2022/02/13 00:14:50;;;;;;;10.33;4.63;;;;;;;-145.69;100.00;73442.53;5112083;28;20559;-76
2022/02/13 00:17:17;;;;;;;10.27;4.07;;;;;;;-145.69;100.00;73412.66;5113016;28;20204;-76
2022/02/13 00:19:44;;;;;;;8.63;3.90;;;;;;;-145.69;100.00;73426.59;5113506;28;20197;-76
2022/02/13 00:22:12;;;;;;;6.73;3.67;;;;;;;-145.69;100.00;73456.47;5112439;28;20288;-77
2022/02/13 00:24:39;;;;;;;13.77;4.00;;;;;;;-145.69;100.00;73476.38;5113466;28;20223;-76
2022/02/13 00:27:06;;;;;;;7.00;3.77;;;;;;;-145.69;100.00;73492.28;5113207;28;20220;-76
2022/02/13 00:29:32;;;;;;;7.80;4.07;;;;;;;-145.69;100.00;73504.25;5113334;28;20197;-76
2022/02/13 00:31:59;;;;;;;11.40;4.60;;;;;;;-145.69;100.00;73538.09;5109656;28;20687;-76
2022/02/13 00:34:25;;;;;;;8.27;4.00;;;;;;;-145.69;100.00;73540.06;5096951;28;20202;-76
2022/02/13 00:36:52;;;;;;;9.73;3.70;;;;;;;-145.69;100.00;73540.06;5092699;28;20248;-76
2022/02/13 00:39:19;;;;;;;9.23;4.00;;;;;;;-145.69;100.00;73524.16;5092713;28;20762;-76
2022/02/13 00:41:46;;;;;;;11.00;3.67;;;;;;;-145.69;100.00;73506.22;5092809;28;20213;-76
2022/02/13 00:44:12;;;;;;;6.93;3.60;;;;;;;-145.69;100.00;73484.34;5098925;28;20680;-76
2022/02/13 00:46:39;;;;;;;15.97;4.03;;;;;;;-145.69;100.00;73504.25;5113025;28;20203;-76
2022/02/13 00:49:05;;;;;;;8.87;3.57;;;;;;;-145.69;100.00;73496.28;5112997;28;20663;-76
2022/02/13 00:51:32;;;;;;;10.77;3.70;;;;;;;-145.69;100.00;73440.53;5113136;28;20233;-76
2022/02/13 00:53:59;;;;;;;11.80;4.13;;;;;;;-145.69;100.00;73460.44;5113098;28;20606;-76
2022/02/13 00:56:27;;;;;;;6.47;3.50;;;;;;;-145.69;100.00;73472.38;5112774;28;20260;-76
2022/02/13 00:58:53;;;;;;;10.83;3.93;;;;;;;-145.69;100.00;73456.47;5112991;28;20198;-76
2022/02/13 01:01:20;;;;;;;9.53;4.00;;;;;;;-145.69;100.00;73436.56;5112844;28;20213;-76
2022/02/13 01:03:46;;;;;;;13.60;3.70;;;;;;;-145.69;100.00;73438.53;5102418;28;20201;-76
2022/02/13 01:06:15;;;;;;;13.40;4.13;;;;;;;-145.69;100.00;73454.47;5099247;28;20656;-76
2022/02/13 01:08:41;;;;;;;7.53;3.20;;;;;;;-145.69;100.00;73470.41;5112996;28;20197;-77
2022/02/13 01:11:08;;;;;;;7.53;3.40;;;;;;;-145.69;100.00;73444.50;5114603;28;20223;-76
2022/02/13 01:13:36;;;;;;;10.53;3.87;;;;;;;-145.69;100.00;73422.63;5116847;28;20205;-76
2022/02/13 01:16:02;;;;;;;8.70;3.90;;;;;;;-145.69;100.00;73426.59;5116621;28;20208;-76
2022/02/13 01:18:29;;;;;;;8.57;3.10;;;;;;;-145.69;100.00;73440.53;5116549;28;20595;-76
2022/02/13 01:20:55;;;;;;;7.13;3.50;;;;;;;-145.69;100.00;73440.53;5116647;28;20284;-76
2022/02/13 01:23:22;;;;;;;7.93;3.17;;;;;;;-145.69;100.00;73456.47;5112920;28;20672;-77
2022/02/13 01:25:49;;;;;;;6.03;3.37;;;;;;;-145.69;100.00;73414.66;5116408;28;20201;-76
2022/02/13 01:28:15;;;;;;;6.27;3.73;;;;;;;-145.69;100.00;73440.53;5116358;28;20197;-76
2022/02/13 01:30:43;;;;;;;7.27;3.60;;;;;;;-145.69;100.00;73424.59;5114369;28;20224;-76
2022/02/13 01:33:09;;;;;;;12.00;3.73;;;;;;;-145.69;100.00;73440.53;5095767;28;20230;-76
2022/02/13 01:35:36;;;;;;;8.23;3.90;;;;;;;-145.69;100.00;73408.69;5096107;28;20203;-76
2022/02/13 01:38:02;;;;;;;15.60;3.87;;;;;;;-145.69;100.00;73394.75;5095976;28;20198;-76
2022/02/13 01:40:29;;;;;;;10.23;3.50;;;;;;;-145.69;100.00;73396.72;5096040;28;20251;-76
2022/02/13 01:42:55;;;;;;;10.67;3.83;;;;;;;-145.69;100.00;73412.66;5095782;28;20198;-78
2022/02/13 01:45:22;;;;;;;12.23;3.90;;;;;;;-145.69;100.00;73408.69;5095543;28;20213;-76
2022/02/13 01:47:50;;;;;;;7.07;3.63;;;;;;;-145.69;100.00;73416.66;5095962;28;20195;-76
2022/02/13 01:50:16;;;;;;;6.43;3.47;;;;;;;-145.69;100.00;73348.97;5095819;28;20202;-76
2022/02/13 01:52:43;;;;;;;6.17;3.10;;;;;;;-145.69;100.00;73339.00;5095627;28;20259;-76
2022/02/13 01:55:11;;;;;;;7.80;3.30;;;;;;;-145.69;100.00;73360.91;5095380;28;20240;-76
2022/02/13 01:57:37;;;;;;;10.47;3.40;;;;;;;-145.69;100.00;73384.78;5095335;28;20304;-77
2022/02/13 02:00:06;;;;;;;10.13;3.37;;;;;;;-145.69;100.00;73410.66;5095315;28;20247;-76
2022/02/13 02:02:32;;;;;;;11.00;3.50;;;;;;;-145.69;100.00;73420.63;5111411;28;20656;-77
2022/02/13 02:05:01;;;;;;;6.13;3.10;;;;;;;-145.69;100.00;73428.59;5115913;28;20210;-77
2022/02/13 02:07:28;;;;;;;5.17;2.90;;;;;;;-145.69;100.00;73448.50;5115547;28;20202;-76
2022/02/13 02:09:54;;;;;;;10.23;3.57;;;;;;;-145.69;100.00;73432.56;5115525;28;20589;-77
2022/02/13 02:12:21;;;;;;;8.20;3.30;;;;;;;-145.69;100.00;73460.44;5115414;28;20683;-76
2022/02/13 02:14:47;;;;;;;10.57;4.00;;;;;;;-145.69;100.00;73448.50;5115457;28;20258;-76
2022/02/13 02:17:14;;;;;;;10.53;3.43;;;;;;;-145.69;100.00;73450.50;5115616;28;20210;-76
2022/02/13 02:19:40;;;;;;;9.97;3.50;;;;;;;-145.69;100.00;73464.44;5115012;28;20201;-77
2022/02/13 02:22:10;;;;;;;8.70;4.00;;;;;;;-145.69;100.00;73490.31;5114863;28;20194;-76
2022/02/13 02:24:38;;;;;;;12.30;3.53;;;;;;;-145.69;100.00;73446.50;5115243;28;20606;-76
2022/02/13 02:27:05;;;;;;;11.87;3.17;;;;;;;-145.69;100.00;73454.47;5115082;28;20194;-76
2022/02/13 02:29:33;;;;;;;9.83;3.20;;;;;;;-145.69;100.00;73428.59;5115441;28;20208;-77
2022/02/13 02:31:59;;;;;;;9.23;3.33;;;;;;;-145.69;100.00;73412.66;5103447;28;20222;-76
2022/02/13 02:34:26;;;;;;;8.20;3.53;;;;;;;-145.69;100.00;73414.66;5112797;28;20201;-76
2022/02/13 02:36:52;;;;;;;10.87;3.30;;;;;;;-145.69;100.00;73424.59;5115167;28;20208;-76
2022/02/13 02:39:19;;;;;;;12.87;3.70;;;;;;;-145.69;100.00;73420.63;5115015;28;20205;-76
2022/02/13 02:41:47;;;;;;;9.47;3.27;;;;;;;-145.69;100.00;73408.69;5115002;28;20205;-76
2022/02/13 02:44:13;;;;;;;12.07;3.73;;;;;;;-145.69;100.00;73374.84;5115075;28;20197;-77
2022/02/13 02:46:40;;;;;;;8.60;4.00;;;;;;;-145.69;100.00;73356.91;5115035;28;20193;-76
2022/02/13 02:49:06;;;;;;;7.77;2.90;;;;;;;-145.69;100.00;73374.84;5114892;28;20205;-76
2022/02/13 02:51:33;;;;;;;11.97;3.43;;;;;;;-145.69;100.00;73368.88;5114850;28;20201;-76
2022/02/13 02:54:00;;;;;;;5.73;2.67;;;;;;;-145.69;100.00;73376.81;5114640;28;20232;-77
2022/02/13 02:56:27;;;;;;;8.50;3.67;;;;;;;-145.69;100.00;73380.81;5114489;28;20237;-76
2022/02/13 02:58:54;;;;;;;12.13;3.10;;;;;;;-145.69;100.00;73372.84;5114521;28;20664;-76
2022/02/13 03:01:21;;;;;;;11.23;3.80;;;;;;;-145.69;100.00;73372.84;5112919;28;20193;-76
2022/02/13 03:03:47;;;;;;;7.43;3.60;;;;;;;-145.69;100.00;73380.81;5114629;28;20209;-77
2022/02/13 03:06:14;;;;;;;7.13;3.50;;;;;;;-145.69;100.00;73360.91;5114465;28;20293;-76
2022/02/13 03:08:40;;;;;;;13.57;4.30;;;;;;;-145.69;100.00;73348.97;5113755;28;20205;-76
2022/02/13 03:11:07;;;;;;;8.27;3.63;;;;;;;-145.69;100.00;73348.97;5097387;28;20280;-76
2022/02/13 03:13:34;;;;;;;5.80;3.30;;;;;;;-145.69;100.00;73344.97;5113738;28;20232;-76
2022/02/13 03:16:02;;;;;;;10.10;3.37;;;;;;;-145.69;100.00;73356.91;5114037;28;20697;-76
2022/02/13 03:18:30;;;;;;;10.00;3.20;;;;;;;-145.69;100.00;73364.88;5114269;28;20244;-76
2022/02/13 03:20:58;;;;;;;10.43;3.53;;;;;;;-145.69;100.00;73392.75;5110576;28;20250;-76
2022/02/13 03:23:26;;;;;;;11.87;3.53;;;;;;;-145.69;100.00;73416.66;5114051;28;20288;-76
2022/02/13 03:25:52;;;;;;;8.43;3.60;;;;;;;-145.69;100.00;73404.69;5114035;28;20674;-77
2022/02/13 03:28:19;;;;;;;14.60;3.77;;;;;;;-145.69;100.00;73396.72;5114234;28;20262;-77
2022/02/13 03:30:45;;;;;;;15.57;3.83;;;;;;;-145.69;100.00;73372.84;5104098;28;20198;-77
2022/02/13 03:33:13;;;;;;;11.13;3.33;;;;;;;-145.69;100.00;73364.88;5093543;28;20236;-76
2022/02/13 03:35:40;;;;;;;8.87;3.20;;;;;;;-145.69;100.00;73364.88;5092592;28;20640;-77
2022/02/13 03:38:07;;;;;;;12.47;3.67;;;;;;;-145.69;100.00;73352.94;5093435;28;20205;-77
2022/02/13 03:40:34;;;;;;;15.00;3.63;;;;;;;-145.69;100.00;73354.94;5093701;28;20203;-77
2022/02/13 03:43:03;;;;;;;9.73;3.47;;;;;;;-145.69;100.00;73366.88;5093603;28;20205;-76
2022/02/13 03:45:29;;;;;;;10.47;3.47;;;;;;;-145.69;100.00;73420.63;5093549;28;20201;-76
2022/02/13 03:47:56;;;;;;;11.03;3.93;;;;;;;-145.69;100.00;73440.53;5093470;28;20599;-77
2022/02/13 03:50:23;;;;;;;19.20;3.90;;;;;;;-145.69;100.00;73420.63;5093380;28;20227;-77
2022/02/13 03:52:50;;;;;;;8.17;3.60;;;;;;;-145.69;100.00;73424.59;5093206;28;20222;-77
2022/02/13 03:55:17;;;;;;;9.20;3.37;;;;;;;-145.69;100.00;73384.78;5093130;28;20619;-77
2022/02/13 03:57:43;;;;;;;6.03;2.70;;;;;;;-145.69;100.00;73388.78;5093361;28;20342;-77
2022/02/13 04:00:12;;;;;;;9.03;3.43;;;;;;;-145.69;100.00;73372.84;5100110;28;20613;-77
2022/02/13 04:02:39;;;;;;;5.73;2.90;;;;;;;-145.69;100.00;73366.88;5109022;28;20225;-77
2022/02/13 04:05:06;;;;;;;8.23;3.33;;;;;;;-145.69;100.00;73376.81;5113452;28;20541;-77
2022/02/13 04:07:35;;;;;;;8.23;3.80;;;;;;;-145.69;100.00;73376.81;5113688;28;20197;-77
2022/02/13 04:10:01;;;;;;;8.40;3.27;;;;;;;-145.69;100.00;73350.94;5113436;28;20672;-78
2022/02/13 04:12:27;;;;;;;10.53;3.70;;;;;;;-145.69;100.00;73356.91;5113348;28;20290;-77
2022/02/13 04:14:54;;;;;;;8.17;3.37;;;;;;;-145.69;100.00;73356.91;5113363;28;20680;-76
2022/02/13 04:17:21;;;;;;;11.00;3.70;;;;;;;-145.69;100.00;73350.94;5113489;28;20201;-77
2022/02/13 04:19:48;;;;;;;5.63;2.77;;;;;;;-145.69;100.00;73356.91;5113387;28;20193;-77
2022/02/13 04:22:14;;;;;;;7.07;3.20;;;;;;;-145.69;100.00;73335.03;5113464;28;20197;-77
2022/02/13 04:24:42;;;;;;;8.00;2.83;;;;;;;-145.69;100.00;73342.97;5113562;28;20202;-77
2022/02/13 04:27:08;;;;;;;8.43;3.50;;;;;;;-145.69;100.00;73368.88;5113258;28;20200;-78
2022/02/13 04:29:35;;;;;;;10.73;3.10;;;;;;;-145.69;100.00;73333.03;5111268;28;20205;-76
2022/02/13 04:32:01;;;;;;;13.10;3.60;;;;;;;-145.69;100.00;73356.91;5092822;28;20201;-78
2022/02/13 04:34:27;;;;;;;6.83;2.93;;;;;;;-145.69;100.00;73346.97;5093013;28;20232;-77
2022/02/13 04:36:54;;;;;;;10.90;3.20;;;;;;;-145.69;100.00;73321.09;5092934;28;20201;-77
2022/02/13 04:39:21;;;;;;;8.00;3.03;;;;;;;-145.69;100.00;73337.00;5092827;28;20205;-77
2022/02/13 04:41:48;;;;;;;6.67;3.07;;;;;;;-145.69;100.00;73331.03;5092821;28;20285;-77
2022/02/13 04:44:15;;;;;;;8.67;3.37;;;;;;;-145.69;100.00;73341.00;5092816;28;20209;-77
2022/02/13 04:46:41;;;;;;;6.97;3.00;;;;;;;-145.69;100.00;73392.75;5095160;28;20206;-77
2022/02/13 04:49:08;;;;;;;13.23;4.20;;;;;;;-145.69;100.00;73384.78;5096854;28;20201;-77
2022/02/13 04:51:34;;;;;;;11.50;3.50;;;;;;;-145.69;100.00;73374.84;5096908;28;20201;-77
2022/02/13 04:54:01;;;;;;;4.27;2.70;;;;;;;-145.69;100.00;73392.75;5096643;28;20226;-78
2022/02/13 04:56:27;;;;;;;8.07;3.43;;;;;;;-145.69;100.00;73368.88;5096470;28;20233;-77
2022/02/13 04:58:55;;;;;;;7.83;3.47;;;;;;;-145.69;100.00;73384.78;5096691;28;20596;-77
2022/02/13 05:01:21;;;;;;;7.43;3.20;;;;;;;-145.69;100.00;73404.69;5115445;28;20194;-76
2022/02/13 05:03:48;;;;;;;6.67;3.47;;;;;;;-145.69;100.00;73329.03;5116722;28;20197;-77
2022/02/13 05:06:14;;;;;;;9.57;3.23;;;;;;;-145.69;100.00;73315.13;5116959;28;20201;-77
2022/02/13 05:08:41;;;;;;;9.07;3.43;;;;;;;-145.69;100.00;73339.00;5117057;28;20197;-77
2022/02/13 05:11:07;;;;;;;16.60;3.90;;;;;;;-145.69;100.00;73329.03;5116755;28;20671;-77
2022/02/13 05:13:33;;;;;;;14.30;3.40;;;;;;;-145.69;100.00;73299.19;5116619;28;20274;-77
2022/02/13 05:16:01;;;;;;;6.23;2.97;;;;;;;-145.69;100.00;73307.16;5116602;28;20232;-76
2022/02/13 05:18:28;;;;;;;6.80;3.17;;;;;;;-145.69;100.00;73259.38;5116940;28;20247;-77
2022/02/13 05:20:54;;;;;;;15.53;3.23;;;;;;;-145.69;100.00;73273.31;5113040;28;20197;-76
2022/02/13 05:23:20;;;;;;;9.00;3.17;;;;;;;-145.69;100.00;73285.25;5116708;28;20198;-77
2022/02/13 05:25:47;;;;;;;9.10;3.67;;;;;;;-145.69;100.00;73291.22;5116492;28;20204;-76
2022/02/13 05:28:13;;;;;;;5.10;2.80;;;;;;;-145.69;100.00;73305.16;5116473;28;20242;-77
2022/02/13 05:30:40;;;;;;;11.83;3.43;;;;;;;-145.69;100.00;73329.03;5103239;28;20194;-77
2022/02/13 05:33:07;;;;;;;7.20;3.17;;;;;;;-145.69;100.00;73321.09;5095984;28;20253;-77
2022/02/13 05:35:34;;;;;;;7.33;3.20;;;;;;;-145.69;100.00;73305.16;5096215;28;20252;-77
2022/02/13 05:38:00;;;;;;;7.00;3.30;;;;;;;-145.69;100.00;73265.34;5095985;28;20252;-77
2022/02/13 05:40:27;;;;;;;12.23;3.20;;;;;;;-145.69;100.00;73269.31;5095948;28;20202;-77
2022/02/13 05:42:53;;;;;;;7.40;3.43;;;;;;;-145.69;100.00;73305.16;5095694;28;20202;-77
2022/02/13 05:45:20;;;;;;;7.97;3.70;;;;;;;-145.69;100.00;73317.09;5095867;28;20854;-77
2022/02/13 05:47:46;;;;;;;5.03;2.80;;;;;;;-145.69;100.00;73342.97;5095602;28;20206;-77
2022/02/13 05:50:14;;;;;;;14.13;3.73;;;;;;;-145.69;100.00;73321.09;5095793;28;20289;-77
2022/02/13 05:52:41;;;;;;;9.73;3.97;;;;;;;-145.69;100.00;73337.00;5095614;28;20198;-77
2022/02/13 05:55:08;;;;;;;15.13;4.37;;;;;;;-145.69;100.00;73319.09;5095392;28;20237;-77
2022/02/13 05:57:34;;;;;;;13.77;4.10;;;;;;;-145.69;100.00;73299.19;5094281;28;20201;-77
2022/02/13 06:00:01;;;;;;;10.70;3.70;;;;;;;-145.69;100.00;73293.22;5105482;28;20193;-77
2022/02/13 06:02:27;;;;;;;12.73;3.60;;;;;;;-145.69;100.00;73295.19;5115898;28;20202;-78
2022/02/13 06:04:53;;;;;;;12.67;4.27;;;;;;;-145.69;100.00;73309.13;5115903;28;20262;-77
2022/02/13 06:07:21;;;;;;;14.70;4.33;;;;;;;-145.69;100.00;73293.22;5115245;28;20209;-77
2022/02/13 06:09:47;;;;;;;16.50;4.83;;;;;;;-145.69;100.00;73261.34;5115591;28;20197;-78
2022/02/13 06:12:14;;;;;;;18.87;6.20;;;;;;;-145.69;100.00;73213.56;5115634;28;20306;-77
2022/02/13 06:14:40;;;;;;;9.83;4.73;;;;;;;-145.69;100.00;73243.44;5115448;28;20748;-77
2022/02/13 06:17:07;;;;;;;16.27;4.30;;;;;;;-145.69;100.00;73263.34;5115692;28;20250;-78
2022/02/13 06:19:33;;;;;;;12.13;5.03;;;;;;;-145.69;100.00;73257.38;5114870;28;20431;-77
2022/02/13 06:22:00;;;;;;;7.97;4.20;;;;;;;-145.69;100.00;73273.31;5115533;28;20201;-78
2022/02/13 06:24:27;;;;;;;10.67;4.00;;;;;;;-145.69;100.00;73285.25;5115218;28;20206;-78
2022/02/13 06:26:54;;;;;;;11.03;4.27;;;;;;;-145.69;100.00;73277.28;5115193;28;20197;-77
2022/02/13 06:29:20;;;;;;;9.10;4.47;;;;;;;-145.69;100.00;73273.31;5111002;28;20186;-77
2022/02/13 06:31:46;;;;;;;12.03;4.43;;;;;;;-145.69;100.00;73257.38;5095011;28;20557;-76
2022/02/13 06:34:13;;;;;;;12.47;4.37;;;;;;;-145.69;100.00;73249.41;5094584;28;20232;-76
2022/02/13 06:36:39;;;;;;;9.03;4.17;;;;;;;-145.69;100.00;73273.31;5094779;28;20209;-77
2022/02/13 06:39:06;;;;;;;12.70;4.70;;;;;;;-145.69;100.00;73281.25;5094633;28;20206;-77
2022/02/13 06:41:34;;;;;;;21.77;5.83;;;;;;;-145.69;100.00;73271.31;5094756;28;20202;-76
2022/02/13 06:44:00;;;;;;;19.50;6.07;;;;;;;-145.69;100.00;73255.38;5094609;28;20565;-77
2022/02/13 06:46:27;;;;;;;14.10;5.67;;;;;;;-145.69;100.00;73257.38;5094379;28;20197;-77
2022/02/13 06:48:53;;;;;;;16.67;4.97;;;;;;;-145.69;100.00;73265.34;5094550;28;20206;-77
2022/02/13 06:51:19;;;;;;;18.00;6.00;;;;;;;-145.69;100.00;73265.34;5094456;28;20202;-76
2022/02/13 06:53:46;;;;;;;16.00;5.23;;;;;;;-145.69;100.00;73277.28;5093952;28;20229;-77
2022/02/13 06:56:13;;;;;;;14.73;5.60;;;;;;;-145.69;100.00;73229.50;5094193;28;20238;-77
2022/02/13 06:58:41;;;;;;;14.50;5.67;;;;;;;-145.69;100.00;73243.44;5095178;28;20285;-77
2022/02/13 07:01:09;;;;;;;18.10;5.73;;;;;;;-145.69;100.00;73237.47;5113470;28;20205;-77
2022/02/13 07:03:35;;;;;;;14.37;5.27;;;;;;;-145.69;100.00;73255.38;5114679;28;20666;-76
2022/02/13 07:06:02;;;;;;;12.80;6.30;;;;;;;-145.69;100.00;73243.44;5114385;28;20209;-77
2022/02/13 07:08:29;;;;;;;13.60;5.13;;;;;;;-145.69;100.00;73229.50;5114210;28;20208;-76
2022/02/13 07:10:55;;;;;;;12.67;5.30;;;;;;;-145.69;100.00;73209.59;5114462;28;20204;-78
2022/02/13 07:13:22;;;;;;;12.93;5.63;;;;;;;-145.69;100.00;73223.53;5114496;28;20275;-76
2022/02/13 07:15:50;;;;;;;12.73;5.50;;;;;;;-145.69;100.00;73203.63;5114437;28;20220;-77
2022/02/13 07:18:16;;;;;;;12.00;5.17;;;;;;;-145.69;100.00;73205.63;5114370;28;20590;-77
2022/02/13 07:20:43;;;;;;;14.93;5.37;;;;;;;-145.69;100.00;73185.72;5114142;28;20204;-77
2022/02/13 07:23:09;;;;;;;11.87;4.90;;;;;;;-145.69;100.00;73193.66;5110614;28;20223;-76
2022/02/13 07:25:36;;;;;;;10.43;4.90;;;;;;;-145.69;100.00;73201.63;5114376;28;20208;-77
2022/02/13 07:28:58;;;;;;;14.67;5.50;;;;;;;-145.69;100.00;73193.66;5114051;28;20201;-78
2022/02/13 07:30:51;;;;;;;10.53;5.57;;;;;;;-145.69;100.00;73183.72;5094570;28;20200;-76
2022/02/13 07:33:18;;;;;;;11.70;5.57;;;;;;;-145.69;100.00;73173.75;5093412;28;20198;-77
2022/02/13 07:35:44;;;;;;;11.63;5.03;;;;;;;-145.69;100.00;73185.72;5093486;28;20202;-77
2022/02/13 07:38:11;;;;;;;10.67;5.10;;;;;;;-145.69;100.00;73187.69;5093415;28;20656;-77
2022/02/13 07:40:37;;;;;;;13.57;5.30;;;;;;;-145.69;100.00;73173.75;5093132;28;20206;-77
2022/02/13 07:43:04;;;;;;;13.63;5.60;;;;;;;-145.69;100.00;73189.69;5093335;28;20228;-76
2022/02/13 07:45:30;;;;;;;11.17;5.10;;;;;;;-145.69;100.00;73205.63;5093441;28;20262;-77
2022/02/13 07:47:58;;;;;;;13.73;6.07;;;;;;;-145.69;100.00;73165.81;5093266;28;20275;-77
2022/02/13 07:50:25;;;;;;;16.10;5.93;;;;;;;-145.69;100.00;73157.84;5093290;28;20672;-77
2022/02/13 07:52:51;;;;;;;13.13;6.07;;;;;;;-145.69;100.00;73157.84;5093154;28;20680;-77
2022/02/13 07:55:18;;;;;;;15.77;6.00;;;;;;;-145.69;100.00;73131.97;5092940;28;20696;-77
2022/02/13 07:57:44;;;;;;;17.27;6.00;;;;;;;-145.69;100.00;73106.09;5093256;28;20718;-77
2022/02/13 08:00:12;;;;;;;13.60;5.60;;;;;;;-145.69;100.00;73094.13;5108871;28;20675;-77
2022/02/13 08:02:40;;;;;;;12.17;5.47;;;;;;;-145.69;100.00;73086.19;5113547;28;20198;-76
2022/02/13 08:05:09;;;;;;;12.93;5.83;;;;;;;-145.69;100.00;73078.22;5113635;28;20194;-77
2022/02/13 08:07:35;;;;;;;13.97;5.70;;;;;;;-145.69;100.00;73082.19;5097139;28;20534;-77
2022/02/13 08:10:02;;;;;;;15.80;6.10;;;;;;;-145.69;100.00;73062.28;5093258;28;20198;-78
2022/02/13 08:12:28;;;;;;;12.73;6.03;;;;;;;-145.69;100.00;73062.28;5092979;28;20198;-78
2022/02/13 08:14:54;;;;;;;17.10;6.40;;;;;;;-145.69;100.00;73052.34;5092850;28;20237;-77
2022/02/13 08:17:22;;;;;;;16.07;5.93;;;;;;;-145.69;100.00;73040.38;5093179;28;20202;-77
2022/02/13 08:19:48;;;;;;;15.40;5.53;;;;;;;-145.69;100.00;73038.41;5093264;28;20227;-78
2022/02/13 08:22:16;;;;;;;11.57;5.30;;;;;;;-145.69;100.00;73030.44;5094458;28;20190;-78
2022/02/13 08:24:42;;;;;;;11.37;5.80;;;;;;;-145.69;100.00;73022.47;5093053;28;20200;-79
2022/02/13 08:27:08;;;;;;;14.40;5.97;;;;;;;-145.69;100.00;73012.53;5103204;28;20671;-80
2022/02/13 08:29:35;;;;;;;13.77;5.80;;;;;;;-145.69;100.00;72988.63;5113145;28;20205;-80
2022/02/13 08:32:01;;;;;;;13.20;6.20;;;;;;;-145.69;100.00;72954.78;5113651;28;20208;-77
2022/02/13 08:34:28;;;;;;;14.47;6.50;;;;;;;-145.69;100.00;72938.88;5113538;28;20232;-78
2022/02/13 08:36:54;;;;;;;10.00;6.23;;;;;;;-145.69;100.00;72922.94;5113392;28;20201;-77
2022/02/13 08:39:22;;;;;;;17.50;6.83;;;;;;;-145.69;97.69;72885.13;5113224;28;20258;-79
2022/02/13 08:41:48;;;;;;;19.50;6.20;;;;;;;-145.69;98.05;72879.16;5113080;28;20205;-81
2022/02/13 08:44:15;;;;;;;18.03;6.50;;;;;;;-145.69;97.63;72869.19;5113344;28;20534;-78
2022/02/13 08:46:41;;;;;;;16.97;6.10;;;;;;;-145.69;97.05;72859.25;5113458;28;20200;-78
2022/02/13 08:49:08;;;;;;;15.27;6.77;;;;;;;-145.69;95.58;72831.38;5113344;28;20202;-77
2022/02/13 08:51:35;;;;;;;15.63;6.53;;;;;;;-145.69;94.88;72811.47;5113339;28;20208;-80
2022/02/13 08:54:01;;;;;;;17.20;6.37;;;;;;;-145.69;93.01;72783.59;5113210;28;20237;-79
2022/02/13 08:56:29;;;;;;;18.30;6.10;;;;;;;-145.69;92.60;72771.66;5108736;28;20229;-79
2022/02/13 08:58:56;;;;;;;16.80;6.87;;;;;;;-145.69;90.21;72743.78;5092678;28;20205;-79
2022/02/13 09:01:23;;;;;;;23.03;6.53;;;;;;;-145.69;89.70;72729.84;5093500;28;20680;-78
2022/02/13 09:03:49;;;;;;;12.87;6.03;;;;;;;-145.69;89.71;72713.94;5092977;28;20233;-78
2022/02/13 09:06:16;;;;;;;18.23;6.50;;;;;;;-145.69;89.83;72707.97;5092752;28;20205;-78
2022/02/13 09:08:42;;;;;;;16.77;6.17;;;;;;;-145.69;89.84;72696.00;5092289;28;20202;-78
2022/02/13 09:11:09;;;;;;;11.83;5.67;;;;;;;-145.69;89.00;72676.09;5092439;28;20202;-78
2022/02/13 09:13:37;;;;;;;9.07;4.83;;;;;;;-145.69;88.53;72672.13;5092754;28;20210;-78
2022/02/13 09:16:03;;;;;;;12.13;5.50;;;;;;;-145.69;86.14;72652.22;5092786;28;20201;-78
2022/02/13 09:18:29;;;;;;;15.40;5.77;;;;;;;-145.69;85.70;72638.28;5092636;28;20255;-79
2022/02/13 09:20:56;;;;;;;24.33;7.93;;;;;;;-145.69;85.19;72608.44;5093036;28;20542;-79
2022/02/13 09:23:23;;;;;;;13.80;4.93;;;;;;;-145.69;82.48;72570.63;5094181;28;20195;-79
2022/02/13 09:25:51;;;;;;;17.10;6.57;;;;;;;-145.69;78.45;72508.91;5092140;28;20687;-78
2022/02/13 09:28:18;;;;;;;15.80;5.37;;;;;;;-145.69;79.45;72508.91;5111702;28;20402;-79
2022/02/13 09:30:47;;;;;;;15.20;6.10;;;;;;;-145.69;79.23;72496.97;5112885;28;20204;-79
2022/02/13 09:33:13;;;;;;;7.40;4.23;;;;;;;-145.69;76.83;72496.97;5114232;28;20205;-79
2022/02/13 09:35:40;;;;;;;14.47;5.10;;;;;;;-145.69;77.38;72479.06;5116232;28;20587;-78
2022/02/13 09:38:08;;;;;;;12.10;5.97;;;;;;;-145.69;76.67;72477.06;5116346;28;20198;-79
2022/02/13 09:40:34;;;;;;;12.00;5.10;;;;;;;-145.69;74.12;72469.09;5115947;28;20194;-79
2022/02/13 09:43:03;;;;;;;16.33;5.30;;;;;;;-145.69;73.00;72451.19;5116120;28;20251;-79
2022/02/13 09:45:30;;;;;;;10.93;5.27;;;;;;;-145.69;73.93;72455.16;5116609;28;20205;-78
2022/02/13 09:48:00;;;;;;;14.03;4.40;;;;;;;-145.69;73.64;72445.22;5116259;28;20204;-79
2022/02/13 09:50:27;;;;;;;10.57;4.50;;;;;;;-145.69;74.98;72439.25;5116140;28;20201;-79
2022/02/13 09:52:56;;;;;;;15.27;4.83;;;;;;;-145.69;77.15;72445.22;5116177;28;20275;-79
2022/02/13 09:55:25;;;;;;;11.13;5.10;;;;;;;-145.69;73.42;72433.28;5116064;28;20236;-79
2022/02/13 09:58:03;;;;;;;19.87;5.67;;;;;;;-145.69;73.84;72427.31;5097551;28;20208;-79
2022/02/13 10:00:51;;;;;;;16.00;4.80;;;;;;;-145.69;72.71;72405.41;5096945;28;20217;-79
2022/02/13 10:03:20;;;;;;;12.57;4.73;;;;;;;-145.69;72.10;72393.47;5095539;28;20550;-79
2022/02/13 10:05:47;;;;;;;16.27;4.93;;;;;;;-145.69;71.86;72373.56;5095655;28;20205;-79
2022/02/13 10:08:26;;;;;;;13.20;4.60;;;;;;;-145.69;68.54;72347.69;5095610;28;20202;-81
2022/02/13 10:11:07;;;;;;;12.33;5.03;;;;;;;-145.69;68.59;72343.72;5095487;28;20561;-79
2022/02/13 10:13:42;;;;;;;9.20;4.47;;;;;;;-145.69;71.18;72337.75;5095178;28;20230;-80
2022/02/13 10:16:16;;;;;;;15.37;5.10;;;;;;;-145.69;69.45;72343.72;5095563;28;20256;-78
2022/02/13 10:18:53;;;;;;;11.33;4.97;;;;;;;-145.69;70.16;72333.75;5095744;28;20604;-80
2022/02/13 10:21:34;;;;;;;11.03;4.27;;;;;;;-145.69;70.97;72323.81;5095394;28;20223;-77
2022/02/13 10:24:18;;;;;;;10.33;4.10;;;;;;;-145.69;68.28;72305.91;5095338;28;20194;-74
2022/02/13 10:26:47;;;;;;;8.33;4.00;;;;;;;-145.69;69.66;72297.94;5103451;28;20202;-78
2022/02/13 10:29:13;;;;;;;17.37;3.90;;;;;;;-145.69;66.31;72274.06;5114904;28;20283;-76
2022/02/13 10:31:41;;;;;;;10.67;3.57;;;;;;;-145.69;66.66;72248.19;5113438;28;20201;-75
2022/02/13 10:34:09;;;;;;;8.77;3.63;;;;;;;-145.69;67.46;72246.19;5094758;28;20280;-76
2022/02/13 10:36:40;;;;;;;13.60;4.30;;;;;;;-145.69;66.66;72228.28;5094704;28;20198;-76
2022/02/13 10:39:20;;;;;;;12.70;3.90;;;;;;;-145.69;67.55;72206.38;5094403;28;20258;-76
2022/02/13 10:41:48;;;;;;;10.67;3.93;;;;;;;-145.69;64.89;72218.31;5095056;28;20194;-75
2022/02/13 10:44:15;;;;;;;11.67;4.27;;;;;;;-145.69;63.72;72206.38;5106158;28;20552;-76
2022/02/13 10:46:43;;;;;;;12.27;4.73;;;;;;;-145.69;63.26;72194.44;5094542;28;20220;-77
2022/02/13 10:49:13;;;;;;;6.97;3.33;;;;;;;-145.69;63.54;72188.47;5106385;28;20194;-75
2022/02/13 10:51:40;;;;;;;8.13;3.30;;;;;;;-145.69;61.67;72178.53;5114603;28;20673;-77
2022/02/13 10:54:06;;;;;;;11.17;4.27;;;;;;;-145.69;61.60;72178.53;5114751;28;20205;-77
2022/02/13 10:56:35;;;;;;;18.50;3.97;;;;;;;-145.69;63.89;72154.63;5114609;28;20914;-76
2022/02/13 10:59:02;;;;;;;9.07;4.37;;;;;;;-145.69;64.33;72162.59;5114673;28;20237;-77
2022/02/13 11:01:29;;;;;;;12.57;4.27;;;;;;;-145.69;64.31;72152.66;5101889;28;20198;-77
2022/02/13 11:04:03;;;;;;;7.13;3.50;;;;;;;-145.69;62.68;72146.69;5094200;28;20217;-77
2022/02/13 11:06:32;;;;;;;7.97;3.67;;;;;;;-145.69;64.86;72150.66;5094238;28;20198;-77